sensor_id;sensor_type;location;lat;lon;timestamp;temperature;humidity
16825;DHT22;8529;48.108;-1.706;2023-04-24T00:00:26;11.50;99.90
16825;DHT22;8529;48.108;-1.706;2023-04-24T00:02:53;11.50;99.90
16825;DHT22;8529;48.108;-1.706;2023-04-24T00:05:22;11.50;99.90
16825;DHT22;8529;48.108;-1.706;2023-04-24T00:07:50;11.60;99.90
16825;DHT22;8529;48.108;-1.706;2023-04-24T00:10:18;11.50;99.90
16825;DHT22;8529;48.108;-1.706;2023-04-24T00:12:45;11.60;99.90
16825;DHT22;8529;48.108;-1.706;2023-04-24T00:15:12;11.50;99.90
16825;DHT22;8529;48.108;-1.706;2023-04-24T00:17:40;11.50;99.90
16825;DHT22;8529;48.108;-1.706;2023-04-24T00:20:08;11.40;99.90
16825;DHT22;8529;48.108;-1.706;2023-04-24T00:22:36;11.40;99.90
16825;DHT22;8529;48.108;-1.706;2023-04-24T00:25:03;11.40;99.90
16825;DHT22;8529;48.108;-1.706;2023-04-24T00:27:31;11.40;99.90
16825;DHT22;8529;48.108;-1.706;2023-04-24T00:29:58;11.40;99.90
16825;DHT22;8529;48.108;-1.706;2023-04-24T00:32:25;11.40;99.90
16825;DHT22;8529;48.108;-1.706;2023-04-24T00:34:53;11.30;99.90
16825;DHT22;8529;48.108;-1.706;2023-04-24T00:37:20;11.30;99.90
16825;DHT22;8529;48.108;-1.706;2023-04-24T00:39:47;11.30;99.90
16825;DHT22;8529;48.108;-1.706;2023-04-24T00:42:13;11.20;99.90
16825;DHT22;8529;48.108;-1.706;2023-04-24T00:44:41;11.20;99.90
16825;DHT22;8529;48.108;-1.706;2023-04-24T00:47:08;11.20;99.90
16825;DHT22;8529;48.108;-1.706;2023-04-24T00:49:34;11.20;99.90
16825;DHT22;8529;48.108;-1.706;2023-04-24T00:52:03;11.20;99.90
16825;DHT22;8529;48.108;-1.706;2023-04-24T00:54:34;11.20;99.90
16825;DHT22;8529;48.108;-1.706;2023-04-24T00:57:01;11.20;99.90
16825;DHT22;8529;48.108;-1.706;2023-04-24T00:59:28;11.20;99.90
16825;DHT22;8529;48.108;-1.706;2023-04-24T01:01:56;11.20;99.90
16825;DHT22;8529;48.108;-1.706;2023-04-24T01:04:23;11.20;99.90
16825;DHT22;8529;48.108;-1.706;2023-04-24T01:06:52;11.20;99.90
16825;DHT22;8529;48.108;-1.706;2023-04-24T01:09:21;11.20;99.90
16825;DHT22;8529;48.108;-1.706;2023-04-24T01:11:50;11.10;99.90
16825;DHT22;8529;48.108;-1.706;2023-04-24T01:14:17;11.10;99.90
16825;DHT22;8529;48.108;-1.706;2023-04-24T01:16:44;11.10;99.90
16825;DHT22;8529;48.108;-1.706;2023-04-24T01:19:11;11.10;99.90
16825;DHT22;8529;48.108;-1.706;2023-04-24T01:21:38;11.20;99.90
16825;DHT22;8529;48.108;-1.706;2023-04-24T01:24:07;11.20;99.90
16825;DHT22;8529;48.108;-1.706;2023-04-24T01:26:34;11.20;99.90
16825;DHT22;8529;48.108;-1.706;2023-04-24T01:29:01;11.20;99.90
16825;DHT22;8529;48.108;-1.706;2023-04-24T01:31:28;11.10;99.90
16825;DHT22;8529;48.108;-1.706;2023-04-24T01:33:56;11.10;99.90
16825;DHT22;8529;48.108;-1.706;2023-04-24T01:36:24;11.10;99.90
16825;DHT22;8529;48.108;-1.706;2023-04-24T01:38:52;11.10;99.90
16825;DHT22;8529;48.108;-1.706;2023-04-24T01:41:21;11.10;99.90
16825;DHT22;8529;48.108;-1.706;2023-04-24T01:43:48;11.10;99.90
16825;DHT22;8529;48.108;-1.706;2023-04-24T01:46:15;11.10;99.90
16825;DHT22;8529;48.108;-1.706;2023-04-24T01:48:42;11.10;99.90
16825;DHT22;8529;48.108;-1.706;2023-04-24T01:51:11;11.10;99.90
16825;DHT22;8529;48.108;-1.706;2023-04-24T01:53:38;11.10;99.90
16825;DHT22;8529;48.108;-1.706;2023-04-24T01:56:05;11.10;99.90
16825;DHT22;8529;48.108;-1.706;2023-04-24T01:58:33;11.10;99.90
16825;DHT22;8529;48.108;-1.706;2023-04-24T02:01:00;11.20;99.90
16825;DHT22;8529;48.108;-1.706;2023-04-24T02:03:27;11.10;99.90
16825;DHT22;8529;48.108;-1.706;2023-04-24T02:05:54;11.10;99.90
16825;DHT22;8529;48.108;-1.706;2023-04-24T02:08:21;11.10;99.90
16825;DHT22;8529;48.108;-1.706;2023-04-24T02:10:48;11.10;99.90
16825;DHT22;8529;48.108;-1.706;2023-04-24T02:13:14;11.10;99.90
16825;DHT22;8529;48.108;-1.706;2023-04-24T02:15:43;11.10;99.90
16825;DHT22;8529;48.108;-1.706;2023-04-24T02:18:09;11.10;99.90
16825;DHT22;8529;48.108;-1.706;2023-04-24T02:20:38;11.10;99.90
16825;DHT22;8529;48.108;-1.706;2023-04-24T02:23:05;11.10;99.90
16825;DHT22;8529;48.108;-1.706;2023-04-24T02:25:33;11.10;99.90
16825;DHT22;8529;48.108;-1.706;2023-04-24T02:28:00;11.00;99.90
16825;DHT22;8529;48.108;-1.706;2023-04-24T02:30:27;11.00;99.90
16825;DHT22;8529;48.108;-1.706;2023-04-24T02:32:56;11.00;99.90
16825;DHT22;8529;48.108;-1.706;2023-04-24T02:35:22;11.00;99.90
16825;DHT22;8529;48.108;-1.706;2023-04-24T02:37:49;10.90;99.90
16825;DHT22;8529;48.108;-1.706;2023-04-24T02:40:16;10.90;99.90
16825;DHT22;8529;48.108;-1.706;2023-04-24T02:42:43;10.90;99.90
16825;DHT22;8529;48.108;-1.706;2023-04-24T02:45:10;10.90;99.90
16825;DHT22;8529;48.108;-1.706;2023-04-24T02:47:37;10.90;99.90
16825;DHT22;8529;48.108;-1.706;2023-04-24T02:50:07;10.90;99.90
16825;DHT22;8529;48.108;-1.706;2023-04-24T02:52:34;10.90;99.90
16825;DHT22;8529;48.108;-1.706;2023-04-24T02:55:01;10.90;99.90
16825;DHT22;8529;48.108;-1.706;2023-04-24T02:57:27;10.90;99.90
16825;DHT22;8529;48.108;-1.706;2023-04-24T02:59:54;10.90;99.90
16825;DHT22;8529;48.108;-1.706;2023-04-24T03:02:21;10.90;99.90
16825;DHT22;8529;48.108;-1.706;2023-04-24T03:04:48;10.90;99.90
16825;DHT22;8529;48.108;-1.706;2023-04-24T03:07:16;10.90;99.90
16825;DHT22;8529;48.108;-1.706;2023-04-24T03:09:46;10.80;99.90
16825;DHT22;8529;48.108;-1.706;2023-04-24T03:12:13;10.90;99.90
16825;DHT22;8529;48.108;-1.706;2023-04-24T03:14:40;10.90;99.90
16825;DHT22;8529;48.108;-1.706;2023-04-24T03:17:06;10.90;99.90
16825;DHT22;8529;48.108;-1.706;2023-04-24T03:19:33;10.90;99.90
16825;DHT22;8529;48.108;-1.706;2023-04-24T03:22:02;10.90;99.90
16825;DHT22;8529;48.108;-1.706;2023-04-24T03:24:30;10.90;99.90
16825;DHT22;8529;48.108;-1.706;2023-04-24T03:26:57;10.90;99.90
16825;DHT22;8529;48.108;-1.706;2023-04-24T03:29:24;10.90;99.90
16825;DHT22;8529;48.108;-1.706;2023-04-24T03:31:51;10.90;99.90
16825;DHT22;8529;48.108;-1.706;2023-04-24T03:34:18;10.80;99.90
16825;DHT22;8529;48.108;-1.706;2023-04-24T03:36:45;10.90;99.90
16825;DHT22;8529;48.108;-1.706;2023-04-24T03:39:13;10.90;99.90
16825;DHT22;8529;48.108;-1.706;2023-04-24T03:41:41;10.90;99.90
16825;DHT22;8529;48.108;-1.706;2023-04-24T03:44:08;10.80;99.90
16825;DHT22;8529;48.108;-1.706;2023-04-24T03:46:34;10.90;99.90
16825;DHT22;8529;48.108;-1.706;2023-04-24T03:49:01;10.90;99.90
16825;DHT22;8529;48.108;-1.706;2023-04-24T03:51:28;10.90;99.90
16825;DHT22;8529;48.108;-1.706;2023-04-24T03:53:56;10.90;99.90
16825;DHT22;8529;48.108;-1.706;2023-04-24T03:56:23;10.90;99.90
16825;DHT22;8529;48.108;-1.706;2023-04-24T03:58:51;10.90;99.90
16825;DHT22;8529;48.108;-1.706;2023-04-24T04:01:18;10.90;99.90
16825;DHT22;8529;48.108;-1.706;2023-04-24T04:03:46;10.90;99.90
16825;DHT22;8529;48.108;-1.706;2023-04-24T04:06:13;10.90;99.90
16825;DHT22;8529;48.108;-1.706;2023-04-24T04:08:40;10.90;99.90
16825;DHT22;8529;48.108;-1.706;2023-04-24T04:11:07;10.90;99.90
16825;DHT22;8529;48.108;-1.706;2023-04-24T04:13:33;10.90;99.90
16825;DHT22;8529;48.108;-1.706;2023-04-24T04:16:02;10.90;99.90
16825;DHT22;8529;48.108;-1.706;2023-04-24T04:18:28;10.80;99.90
16825;DHT22;8529;48.108;-1.706;2023-04-24T04:20:55;10.80;99.90
16825;DHT22;8529;48.108;-1.706;2023-04-24T04:23:22;10.80;99.90
16825;DHT22;8529;48.108;-1.706;2023-04-24T04:25:50;10.80;99.90
16825;DHT22;8529;48.108;-1.706;2023-04-24T04:28:17;10.90;99.90
16825;DHT22;8529;48.108;-1.706;2023-04-24T04:30:45;10.90;99.90
16825;DHT22;8529;48.108;-1.706;2023-04-24T04:33:13;10.90;99.90
16825;DHT22;8529;48.108;-1.706;2023-04-24T04:35:41;10.90;99.90
16825;DHT22;8529;48.108;-1.706;2023-04-24T04:38:09;10.80;99.90
16825;DHT22;8529;48.108;-1.706;2023-04-24T04:40:36;10.90;99.90
16825;DHT22;8529;48.108;-1.706;2023-04-24T04:43:03;10.80;99.90
16825;DHT22;8529;48.108;-1.706;2023-04-24T04:45:30;10.80;99.90
16825;DHT22;8529;48.108;-1.706;2023-04-24T04:47:58;10.80;99.90
16825;DHT22;8529;48.108;-1.706;2023-04-24T04:50:27;10.80;99.90
16825;DHT22;8529;48.108;-1.706;2023-04-24T04:52:54;10.80;99.90
16825;DHT22;8529;48.108;-1.706;2023-04-24T04:55:21;10.80;99.90
16825;DHT22;8529;48.108;-1.706;2023-04-24T04:57:48;10.80;99.90
16825;DHT22;8529;48.108;-1.706;2023-04-24T05:00:15;10.80;99.90
16825;DHT22;8529;48.108;-1.706;2023-04-24T05:02:42;10.80;99.90
16825;DHT22;8529;48.108;-1.706;2023-04-24T05:05:09;10.80;99.90
16825;DHT22;8529;48.108;-1.706;2023-04-24T05:07:37;10.80;99.90
16825;DHT22;8529;48.108;-1.706;2023-04-24T05:10:05;10.80;99.90
16825;DHT22;8529;48.108;-1.706;2023-04-24T05:12:32;10.90;99.90
16825;DHT22;8529;48.108;-1.706;2023-04-24T05:14:59;10.90;99.90
16825;DHT22;8529;48.108;-1.706;2023-04-24T05:17:26;10.90;99.90
16825;DHT22;8529;48.108;-1.706;2023-04-24T05:19:53;10.80;99.90
16825;DHT22;8529;48.108;-1.706;2023-04-24T05:22:20;10.80;99.90
16825;DHT22;8529;48.108;-1.706;2023-04-24T05:24:49;10.80;99.90
16825;DHT22;8529;48.108;-1.706;2023-04-24T05:27:15;10.70;99.90
16825;DHT22;8529;48.108;-1.706;2023-04-24T05:29:42;10.70;99.90
16825;DHT22;8529;48.108;-1.706;2023-04-24T05:32:09;10.80;99.90
16825;DHT22;8529;48.108;-1.706;2023-04-24T05:34:36;10.80;99.90
16825;DHT22;8529;48.108;-1.706;2023-04-24T05:37:03;10.80;99.90
16825;DHT22;8529;48.108;-1.706;2023-04-24T05:39:33;10.80;99.90
16825;DHT22;8529;48.108;-1.706;2023-04-24T05:42:02;10.70;99.90
16825;DHT22;8529;48.108;-1.706;2023-04-24T05:44:30;10.70;99.90
16825;DHT22;8529;48.108;-1.706;2023-04-24T05:46:57;10.70;99.90
16825;DHT22;8529;48.108;-1.706;2023-04-24T05:49:24;10.70;99.90
16825;DHT22;8529;48.108;-1.706;2023-04-24T05:51:50;10.70;99.90
16825;DHT22;8529;48.108;-1.706;2023-04-24T05:54:17;10.60;99.90
16825;DHT22;8529;48.108;-1.706;2023-04-24T05:56:44;10.60;99.90
16825;DHT22;8529;48.108;-1.706;2023-04-24T05:59:13;10.60;99.90
16825;DHT22;8529;48.108;-1.706;2023-04-24T06:01:40;10.50;99.90
16825;DHT22;8529;48.108;-1.706;2023-04-24T06:04:07;10.50;99.90
16825;DHT22;8529;48.108;-1.706;2023-04-24T06:06:35;10.40;99.90
16825;DHT22;8529;48.108;-1.706;2023-04-24T06:09:01;10.40;99.90
16825;DHT22;8529;48.108;-1.706;2023-04-24T06:11:29;10.40;99.90
16825;DHT22;8529;48.108;-1.706;2023-04-24T06:13:56;10.40;99.90
16825;DHT22;8529;48.108;-1.706;2023-04-24T06:16:24;10.40;99.90
16825;DHT22;8529;48.108;-1.706;2023-04-24T06:18:51;10.40;99.90
16825;DHT22;8529;48.108;-1.706;2023-04-24T06:21:18;10.40;99.90
16825;DHT22;8529;48.108;-1.706;2023-04-24T06:23:45;10.40;99.90
16825;DHT22;8529;48.108;-1.706;2023-04-24T06:26:12;10.40;99.90
16825;DHT22;8529;48.108;-1.706;2023-04-24T06:28:40;10.40;99.90
16825;DHT22;8529;48.108;-1.706;2023-04-24T06:31:07;10.40;99.90
16825;DHT22;8529;48.108;-1.706;2023-04-24T06:33:35;10.40;99.90
16825;DHT22;8529;48.108;-1.706;2023-04-24T06:36:02;10.40;99.90
16825;DHT22;8529;48.108;-1.706;2023-04-24T06:38:29;10.50;99.90
16825;DHT22;8529;48.108;-1.706;2023-04-24T06:40:56;10.50;99.90
16825;DHT22;8529;48.108;-1.706;2023-04-24T06:43:23;10.50;99.90
16825;DHT22;8529;48.108;-1.706;2023-04-24T06:45:50;10.50;99.90
16825;DHT22;8529;48.108;-1.706;2023-04-24T06:48:17;10.50;99.90
16825;DHT22;8529;48.108;-1.706;2023-04-24T06:50:45;10.50;99.90
16825;DHT22;8529;48.108;-1.706;2023-04-24T06:53:12;10.60;99.90
16825;DHT22;8529;48.108;-1.706;2023-04-24T06:55:40;10.60;99.90
16825;DHT22;8529;48.108;-1.706;2023-04-24T06:58:07;10.70;99.90
16825;DHT22;8529;48.108;-1.706;2023-04-24T07:00:34;10.80;99.90
16825;DHT22;8529;48.108;-1.706;2023-04-24T07:03:01;10.80;99.90
16825;DHT22;8529;48.108;-1.706;2023-04-24T07:05:28;10.80;99.90
16825;DHT22;8529;48.108;-1.706;2023-04-24T07:07:56;10.90;99.90
16825;DHT22;8529;48.108;-1.706;2023-04-24T07:10:24;10.90;99.90
16825;DHT22;8529;48.108;-1.706;2023-04-24T07:12:52;10.90;99.90
16825;DHT22;8529;48.108;-1.706;2023-04-24T07:15:19;10.90;99.90
16825;DHT22;8529;48.108;-1.706;2023-04-24T07:17:46;11.00;99.90
16825;DHT22;8529;48.108;-1.706;2023-04-24T07:20:13;11.00;99.90
16825;DHT22;8529;48.108;-1.706;2023-04-24T07:22:41;11.00;99.90
16825;DHT22;8529;48.108;-1.706;2023-04-24T07:25:09;11.00;99.90
16825;DHT22;8529;48.108;-1.706;2023-04-24T07:27:36;11.10;99.90
16825;DHT22;8529;48.108;-1.706;2023-04-24T07:30:04;11.10;99.90
16825;DHT22;8529;48.108;-1.706;2023-04-24T07:32:32;11.10;99.90
16825;DHT22;8529;48.108;-1.706;2023-04-24T07:34:59;11.10;99.90
16825;DHT22;8529;48.108;-1.706;2023-04-24T07:37:26;11.20;99.90
16825;DHT22;8529;48.108;-1.706;2023-04-24T07:39:52;11.20;99.90
16825;DHT22;8529;48.108;-1.706;2023-04-24T07:42:21;11.20;99.90
16825;DHT22;8529;48.108;-1.706;2023-04-24T07:44:48;11.30;99.90
16825;DHT22;8529;48.108;-1.706;2023-04-24T07:47:15;11.30;99.90
16825;DHT22;8529;48.108;-1.706;2023-04-24T07:49:42;11.40;99.90
16825;DHT22;8529;48.108;-1.706;2023-04-24T07:52:09;11.40;99.90
16825;DHT22;8529;48.108;-1.706;2023-04-24T07:54:36;11.40;99.90
16825;DHT22;8529;48.108;-1.706;2023-04-24T07:57:03;11.40;99.90
16825;DHT22;8529;48.108;-1.706;2023-04-24T07:59:33;11.50;99.90
16825;DHT22;8529;48.108;-1.706;2023-04-24T08:02:00;11.50;99.90
16825;DHT22;8529;48.108;-1.706;2023-04-24T08:04:27;11.50;99.90
16825;DHT22;8529;48.108;-1.706;2023-04-24T08:06:54;11.50;99.90
16825;DHT22;8529;48.108;-1.706;2023-04-24T08:09:20;11.60;99.90
16825;DHT22;8529;48.108;-1.706;2023-04-24T08:11:47;11.60;99.90
16825;DHT22;8529;48.108;-1.706;2023-04-24T08:14:17;11.70;99.90
16825;DHT22;8529;48.108;-1.706;2023-04-24T08:16:45;11.70;99.90
16825;DHT22;8529;48.108;-1.706;2023-04-24T08:19:12;11.70;99.90
16825;DHT22;8529;48.108;-1.706;2023-04-24T08:21:39;11.80;99.90
16825;DHT22;8529;48.108;-1.706;2023-04-24T08:24:06;11.80;99.90
16825;DHT22;8529;48.108;-1.706;2023-04-24T08:26:33;11.90;99.90
16825;DHT22;8529;48.108;-1.706;2023-04-24T08:29:00;11.90;99.90
16825;DHT22;8529;48.108;-1.706;2023-04-24T08:31:27;11.90;99.90
16825;DHT22;8529;48.108;-1.706;2023-04-24T08:33:55;11.90;99.90
16825;DHT22;8529;48.108;-1.706;2023-04-24T08:36:22;11.90;99.90
16825;DHT22;8529;48.108;-1.706;2023-04-24T08:38:49;12.00;99.90
16825;DHT22;8529;48.108;-1.706;2023-04-24T08:41:18;12.10;99.90
16825;DHT22;8529;48.108;-1.706;2023-04-24T08:43:46;12.10;99.90
16825;DHT22;8529;48.108;-1.706;2023-04-24T08:46:13;12.10;99.90
16825;DHT22;8529;48.108;-1.706;2023-04-24T08:48:42;12.20;99.90
16825;DHT22;8529;48.108;-1.706;2023-04-24T08:51:10;12.30;99.90
16825;DHT22;8529;48.108;-1.706;2023-04-24T08:53:37;12.30;99.90
16825;DHT22;8529;48.108;-1.706;2023-04-24T08:56:04;12.30;99.90
16825;DHT22;8529;48.108;-1.706;2023-04-24T08:58:31;12.40;99.90
16825;DHT22;8529;48.108;-1.706;2023-04-24T09:00:59;12.50;99.90
16825;DHT22;8529;48.108;-1.706;2023-04-24T09:03:27;12.50;99.90
16825;DHT22;8529;48.108;-1.706;2023-04-24T09:05:55;12.60;99.90
16825;DHT22;8529;48.108;-1.706;2023-04-24T09:08:26;12.60;99.90
16825;DHT22;8529;48.108;-1.706;2023-04-24T09:10:54;12.60;99.90
16825;DHT22;8529;48.108;-1.706;2023-04-24T09:13:24;12.70;99.90
16825;DHT22;8529;48.108;-1.706;2023-04-24T09:15:51;12.70;99.90
16825;DHT22;8529;48.108;-1.706;2023-04-24T09:18:19;12.70;99.90
16825;DHT22;8529;48.108;-1.706;2023-04-24T09:21:00;12.70;99.90
16825;DHT22;8529;48.108;-1.706;2023-04-24T09:23:30;12.70;99.90
16825;DHT22;8529;48.108;-1.706;2023-04-24T09:25:58;12.70;99.90
16825;DHT22;8529;48.108;-1.706;2023-04-24T09:28:30;12.70;99.90
16825;DHT22;8529;48.108;-1.706;2023-04-24T09:31:08;12.70;99.90
16825;DHT22;8529;48.108;-1.706;2023-04-24T09:33:36;12.60;99.90
16825;DHT22;8529;48.108;-1.706;2023-04-24T09:36:03;12.60;99.90
16825;DHT22;8529;48.108;-1.706;2023-04-24T09:38:33;12.60;99.90
16825;DHT22;8529;48.108;-1.706;2023-04-24T09:41:01;12.60;99.90
16825;DHT22;8529;48.108;-1.706;2023-04-24T09:43:29;12.50;99.90
16825;DHT22;8529;48.108;-1.706;2023-04-24T09:45:57;12.50;99.90
16825;DHT22;8529;48.108;-1.706;2023-04-24T09:48:31;12.50;99.90
16825;DHT22;8529;48.108;-1.706;2023-04-24T09:50:58;12.60;99.90
16825;DHT22;8529;48.108;-1.706;2023-04-24T09:53:26;12.60;99.90
16825;DHT22;8529;48.108;-1.706;2023-04-24T09:55:55;12.70;99.90
16825;DHT22;8529;48.108;-1.706;2023-04-24T09:58:25;12.70;99.90
16825;DHT22;8529;48.108;-1.706;2023-04-24T10:00:54;12.70;99.90
16825;DHT22;8529;48.108;-1.706;2023-04-24T10:03:24;12.70;99.90
16825;DHT22;8529;48.108;-1.706;2023-04-24T10:05:52;12.80;99.90
16825;DHT22;8529;48.108;-1.706;2023-04-24T10:08:19;13.00;99.90
16825;DHT22;8529;48.108;-1.706;2023-04-24T10:10:47;13.10;99.90
16825;DHT22;8529;48.108;-1.706;2023-04-24T10:13:15;13.30;99.90
16825;DHT22;8529;48.108;-1.706;2023-04-24T10:15:43;13.40;99.90
16825;DHT22;8529;48.108;-1.706;2023-04-24T10:18:11;13.50;99.90
16825;DHT22;8529;48.108;-1.706;2023-04-24T10:20:39;13.50;99.90
16825;DHT22;8529;48.108;-1.706;2023-04-24T10:23:06;13.50;99.90
16825;DHT22;8529;48.108;-1.706;2023-04-24T10:25:35;13.40;99.90
16825;DHT22;8529;48.108;-1.706;2023-04-24T10:28:03;13.40;99.90
16825;DHT22;8529;48.108;-1.706;2023-04-24T10:30:32;13.30;99.90
16825;DHT22;8529;48.108;-1.706;2023-04-24T10:33:01;13.20;99.90
16825;DHT22;8529;48.108;-1.706;2023-04-24T10:35:31;13.20;99.90
16825;DHT22;8529;48.108;-1.706;2023-04-24T10:38:01;13.20;99.90
16825;DHT22;8529;48.108;-1.706;2023-04-24T10:40:31;13.10;99.90
16825;DHT22;8529;48.108;-1.706;2023-04-24T10:43:01;13.10;99.90
16825;DHT22;8529;48.108;-1.706;2023-04-24T10:45:28;13.10;99.90
16825;DHT22;8529;48.108;-1.706;2023-04-24T10:48:01;13.30;99.90
16825;DHT22;8529;48.108;-1.706;2023-04-24T10:50:29;13.30;99.90
16825;DHT22;8529;48.108;-1.706;2023-04-24T10:53:06;13.40;99.90
16825;DHT22;8529;48.108;-1.706;2023-04-24T10:55:44;13.40;99.90
16825;DHT22;8529;48.108;-1.706;2023-04-24T10:58:12;13.30;99.90
16825;DHT22;8529;48.108;-1.706;2023-04-24T11:00:40;13.30;99.90
16825;DHT22;8529;48.108;-1.706;2023-04-24T11:03:25;13.30;99.90
16825;DHT22;8529;48.108;-1.706;2023-04-24T11:05:55;13.40;99.90
16825;DHT22;8529;48.108;-1.706;2023-04-24T11:08:30;13.30;99.90
16825;DHT22;8529;48.108;-1.706;2023-04-24T11:11:00;13.40;99.90
16825;DHT22;8529;48.108;-1.706;2023-04-24T11:14:00;13.50;99.90
16825;DHT22;8529;48.108;-1.706;2023-04-24T11:16:20;13.60;99.90
16825;DHT22;8529;48.108;-1.706;2023-04-24T11:18:52;13.70;99.90
16825;DHT22;8529;48.108;-1.706;2023-04-24T11:21:31;13.70;99.90
16825;DHT22;8529;48.108;-1.706;2023-04-24T11:23:58;13.60;99.90
16825;DHT22;8529;48.108;-1.706;2023-04-24T11:26:25;13.50;99.90
16825;DHT22;8529;48.108;-1.706;2023-04-24T11:29:07;13.40;99.90
16825;DHT22;8529;48.108;-1.706;2023-04-24T11:31:35;13.30;99.90
16825;DHT22;8529;48.108;-1.706;2023-04-24T11:34:09;13.30;99.90
16825;DHT22;8529;48.108;-1.706;2023-04-24T11:36:36;13.30;99.90
16825;DHT22;8529;48.108;-1.706;2023-04-24T11:39:03;13.30;99.90
16825;DHT22;8529;48.108;-1.706;2023-04-24T11:41:30;13.30;99.90
16825;DHT22;8529;48.108;-1.706;2023-04-24T11:43:58;13.50;99.90
16825;DHT22;8529;48.108;-1.706;2023-04-24T11:46:27;13.70;99.90
16825;DHT22;8529;48.108;-1.706;2023-04-24T11:48:55;13.80;99.90
16825;DHT22;8529;48.108;-1.706;2023-04-24T11:51:24;13.90;99.90
16825;DHT22;8529;48.108;-1.706;2023-04-24T11:53:52;13.90;99.90
16825;DHT22;8529;48.108;-1.706;2023-04-24T11:56:19;13.90;99.90
16825;DHT22;8529;48.108;-1.706;2023-04-24T11:58:47;13.80;99.90
16825;DHT22;8529;48.108;-1.706;2023-04-24T12:01:14;13.80;99.90
16825;DHT22;8529;48.108;-1.706;2023-04-24T12:03:41;13.70;99.90
16825;DHT22;8529;48.108;-1.706;2023-04-24T12:06:12;13.60;99.90
16825;DHT22;8529;48.108;-1.706;2023-04-24T12:08:40;13.60;99.90
16825;DHT22;8529;48.108;-1.706;2023-04-24T12:11:07;13.50;99.90
16825;DHT22;8529;48.108;-1.706;2023-04-24T12:13:35;13.50;99.90
16825;DHT22;8529;48.108;-1.706;2023-04-24T12:16:03;13.50;99.90
16825;DHT22;8529;48.108;-1.706;2023-04-24T12:18:31;13.60;99.90
16825;DHT22;8529;48.108;-1.706;2023-04-24T12:21:16;13.70;99.90
16825;DHT22;8529;48.108;-1.706;2023-04-24T12:23:45;13.80;99.90
16825;DHT22;8529;48.108;-1.706;2023-04-24T12:26:12;13.80;99.90
16825;DHT22;8529;48.108;-1.706;2023-04-24T12:28:39;13.90;99.90
16825;DHT22;8529;48.108;-1.706;2023-04-24T12:31:06;14.00;99.90
16825;DHT22;8529;48.108;-1.706;2023-04-24T12:33:35;13.90;99.90
16825;DHT22;8529;48.108;-1.706;2023-04-24T12:36:02;14.00;99.90
16825;DHT22;8529;48.108;-1.706;2023-04-24T12:38:29;14.10;99.90
16825;DHT22;8529;48.108;-1.706;2023-04-24T12:41:04;14.10;99.90
16825;DHT22;8529;48.108;-1.706;2023-04-24T12:43:32;14.10;99.90
16825;DHT22;8529;48.108;-1.706;2023-04-24T12:45:59;14.10;99.90
16825;DHT22;8529;48.108;-1.706;2023-04-24T12:48:26;14.10;99.90
16825;DHT22;8529;48.108;-1.706;2023-04-24T12:50:53;14.10;99.90
16825;DHT22;8529;48.108;-1.706;2023-04-24T12:53:20;14.00;99.90
16825;DHT22;8529;48.108;-1.706;2023-04-24T12:55:47;14.10;99.90
16825;DHT22;8529;48.108;-1.706;2023-04-24T12:58:20;14.10;99.90
16825;DHT22;8529;48.108;-1.706;2023-04-24T13:00:47;14.10;99.90
16825;DHT22;8529;48.108;-1.706;2023-04-24T13:03:14;14.10;99.90
16825;DHT22;8529;48.108;-1.706;2023-04-24T13:05:42;14.20;99.90
16825;DHT22;8529;48.108;-1.706;2023-04-24T13:08:09;14.30;99.90
16825;DHT22;8529;48.108;-1.706;2023-04-24T13:10:36;14.30;99.90
16825;DHT22;8529;48.108;-1.706;2023-04-24T13:13:03;14.40;99.90
16825;DHT22;8529;48.108;-1.706;2023-04-24T13:15:31;14.40;99.90
16825;DHT22;8529;48.108;-1.706;2023-04-24T13:17:58;14.50;99.90
16825;DHT22;8529;48.108;-1.706;2023-04-24T13:20:25;14.50;99.90
16825;DHT22;8529;48.108;-1.706;2023-04-24T13:22:52;14.60;99.90
16825;DHT22;8529;48.108;-1.706;2023-04-24T13:25:18;14.60;99.90
16825;DHT22;8529;48.108;-1.706;2023-04-24T13:27:46;14.60;99.90
16825;DHT22;8529;48.108;-1.706;2023-04-24T13:30:13;14.60;99.90
16825;DHT22;8529;48.108;-1.706;2023-04-24T13:32:42;14.60;99.90
16825;DHT22;8529;48.108;-1.706;2023-04-24T13:35:08;14.60;99.90
16825;DHT22;8529;48.108;-1.706;2023-04-24T13:37:35;14.60;99.90
16825;DHT22;8529;48.108;-1.706;2023-04-24T13:40:03;14.50;99.90
16825;DHT22;8529;48.108;-1.706;2023-04-24T13:42:32;14.50;99.90
16825;DHT22;8529;48.108;-1.706;2023-04-24T13:44:59;14.50;99.90
16825;DHT22;8529;48.108;-1.706;2023-04-24T13:47:26;14.50;99.90
16825;DHT22;8529;48.108;-1.706;2023-04-24T13:49:54;14.50;99.90
16825;DHT22;8529;48.108;-1.706;2023-04-24T13:52:21;14.40;99.90
16825;DHT22;8529;48.108;-1.706;2023-04-24T13:54:48;14.40;99.90
16825;DHT22;8529;48.108;-1.706;2023-04-24T13:57:15;14.50;99.90
16825;DHT22;8529;48.108;-1.706;2023-04-24T13:59:42;14.40;99.90
16825;DHT22;8529;48.108;-1.706;2023-04-24T14:02:10;14.50;99.90
16825;DHT22;8529;48.108;-1.706;2023-04-24T14:04:37;14.50;99.90
16825;DHT22;8529;48.108;-1.706;2023-04-24T14:07:05;14.50;99.90
16825;DHT22;8529;48.108;-1.706;2023-04-24T14:09:33;14.40;99.90
16825;DHT22;8529;48.108;-1.706;2023-04-24T14:12:00;14.40;99.90
16825;DHT22;8529;48.108;-1.706;2023-04-24T14:14:28;14.30;99.90
16825;DHT22;8529;48.108;-1.706;2023-04-24T14:16:56;14.30;99.90
16825;DHT22;8529;48.108;-1.706;2023-04-24T14:19:23;14.30;99.90
16825;DHT22;8529;48.108;-1.706;2023-04-24T14:21:50;14.20;99.90
16825;DHT22;8529;48.108;-1.706;2023-04-24T14:24:19;14.20;99.90
16825;DHT22;8529;48.108;-1.706;2023-04-24T14:26:45;14.20;99.90
16825;DHT22;8529;48.108;-1.706;2023-04-24T14:29:12;14.10;99.90
16825;DHT22;8529;48.108;-1.706;2023-04-24T14:31:39;14.10;99.90
16825;DHT22;8529;48.108;-1.706;2023-04-24T14:34:06;14.00;99.90
16825;DHT22;8529;48.108;-1.706;2023-04-24T14:36:33;13.90;99.90
16825;DHT22;8529;48.108;-1.706;2023-04-24T14:39:00;13.80;99.90
16825;DHT22;8529;48.108;-1.706;2023-04-24T14:41:32;13.80;99.90
16825;DHT22;8529;48.108;-1.706;2023-04-24T14:44:01;13.80;99.90
16825;DHT22;8529;48.108;-1.706;2023-04-24T14:46:29;13.80;99.90
16825;DHT22;8529;48.108;-1.706;2023-04-24T14:48:56;13.80;99.90
16825;DHT22;8529;48.108;-1.706;2023-04-24T14:51:23;13.80;99.90
16825;DHT22;8529;48.108;-1.706;2023-04-24T14:53:50;13.80;99.90
16825;DHT22;8529;48.108;-1.706;2023-04-24T14:56:17;13.80;99.90
16825;DHT22;8529;48.108;-1.706;2023-04-24T14:58:45;13.90;99.90
16825;DHT22;8529;48.108;-1.706;2023-04-24T15:01:12;13.90;99.90
16825;DHT22;8529;48.108;-1.706;2023-04-24T15:03:39;13.90;99.90
16825;DHT22;8529;48.108;-1.706;2023-04-24T15:06:06;14.00;99.90
16825;DHT22;8529;48.108;-1.706;2023-04-24T15:08:33;13.90;99.90
16825;DHT22;8529;48.108;-1.706;2023-04-24T15:11:00;13.80;99.90
16825;DHT22;8529;48.108;-1.706;2023-04-24T15:13:27;13.60;99.90
16825;DHT22;8529;48.108;-1.706;2023-04-24T15:15:56;13.50;99.90
16825;DHT22;8529;48.108;-1.706;2023-04-24T15:18:23;13.50;99.90
16825;DHT22;8529;48.108;-1.706;2023-04-24T15:20:49;13.40;99.90
16825;DHT22;8529;48.108;-1.706;2023-04-24T15:23:16;13.40;99.90
16825;DHT22;8529;48.108;-1.706;2023-04-24T15:25:43;13.50;99.90
16825;DHT22;8529;48.108;-1.706;2023-04-24T15:28:10;13.50;99.90
16825;DHT22;8529;48.108;-1.706;2023-04-24T15:30:37;13.60;99.90
16825;DHT22;8529;48.108;-1.706;2023-04-24T15:33:05;13.80;99.90